Corbridge, United Kingdom
Current Conditions -  °F | °C
As of 12:20 PM on Friday 31 Oct 2014 (Local Time) from EGNT Reporting Station
Few Clouds Few Clouds  
Wind Chill: 16°   Ceiling: Unl
Heat Index: 16°   Visibility: 6mi
Dew Point: 14°   Wind: 9mph
Humidity: 88%   Direction: 170°S
Pressure: 29.8"   Gusts: NA
Location:  54.97°N, 2.02°W
Report Text: EGNT 311220Z 17008KT 120V210 9000 FEW020 16/14 Q1009
Loading
Personal Weather Stations






























Interactive Weather Map
Tropical Storm Tracking
New forecast layout! Learn more

10-Day Weather Forecast

Advertisements
Track Severe Weather on mobile